createdAt,value
2019-02-24T00:01:34.820Z,1
2019-02-24T00:06:37.314Z,1
2019-02-24T00:11:39.770Z,1
2019-02-24T00:16:42.183Z,1
2019-02-24T00:21:44.650Z,1
2019-02-24T00:26:47.084Z,1
2019-02-24T00:31:49.571Z,1
2019-02-24T00:36:52.113Z,1
2019-02-24T00:41:54.503Z,1
2019-02-24T00:46:56.947Z,1
2019-02-24T00:51:59.418Z,1
2019-02-24T00:57:01.860Z,1
2019-02-24T01:02:04.311Z,1
2019-02-24T01:07:06.753Z,1
2019-02-24T01:12:09.206Z,1
2019-02-24T01:17:11.802Z,1
2019-02-24T01:22:14.182Z,1
2019-02-24T01:27:16.603Z,1
2019-02-24T01:32:19.035Z,1
2019-02-24T01:37:21.486Z,1
2019-02-24T01:42:23.939Z,1
2019-02-24T01:47:26.400Z,1
2019-02-24T01:52:28.862Z,1
2019-02-24T01:57:31.370Z,1
2019-02-24T02:02:33.794Z,1
2019-02-24T02:07:36.242Z,1
2019-02-24T02:12:38.699Z,1
2019-02-24T02:17:41.139Z,1
2019-02-24T02:22:43.635Z,1
2019-02-24T02:27:46.051Z,1
2019-02-24T02:32:48.575Z,1
2019-02-24T02:37:50.982Z,1
2019-02-24T02:42:53.451Z,27.1
2019-02-24T02:47:55.888Z,17.1
2019-02-24T02:58:00.872Z,1
2019-02-24T03:03:03.287Z,1
2019-02-24T03:08:06.001Z,1
2019-02-24T03:13:08.175Z,1
2019-02-24T03:18:10.694Z,1
2019-02-24T03:23:13.091Z,1
2019-02-24T03:28:15.602Z,1
2019-02-24T03:33:18.003Z,2.1
2019-02-24T03:38:20.482Z,10
2019-02-24T03:43:22.937Z,8.4
2019-02-24T03:48:25.354Z,8
2019-02-24T03:53:27.817Z,16.5
2019-02-24T03:58:30.274Z,14.6
2019-02-24T04:03:32.863Z,6.6
2019-02-24T04:08:35.199Z,6.7
2019-02-24T04:13:37.664Z,3.1
2019-02-24T04:18:40.093Z,1.1
2019-02-24T04:23:42.556Z,1
2019-02-24T04:28:45.013Z,24.2
2019-02-24T04:33:47.612Z,25.7
2019-02-24T04:38:50.034Z,32.9
2019-02-24T04:43:52.420Z,27.3
2019-02-24T04:48:54.909Z,20.9
2019-02-24T04:53:57.312Z,16.4
2019-02-24T04:58:59.798Z,24.6
2019-02-24T05:04:02.347Z,54.1
2019-02-24T05:09:04.661Z,43.6
2019-02-24T05:14:07.231Z,38.5
2019-02-24T05:19:09.645Z,38
2019-02-24T05:24:17.071Z,29.8
2019-02-24T05:29:14.513Z,20.2
2019-02-24T05:34:17.008Z,15.1
2019-02-24T05:39:19.730Z,12.2
2019-02-24T05:44:21.877Z,8.1
2019-02-24T05:49:24.336Z,5.4
2019-02-24T05:54:26.779Z,17.5
2019-02-24T05:59:29.270Z,9.9
2019-02-24T06:04:31.686Z,1.7
2019-02-24T06:09:34.152Z,1
2019-02-24T06:14:36.606Z,1
2019-02-24T06:19:39.064Z,1
2019-02-24T06:24:41.613Z,1
2019-02-24T06:29:43.985Z,1
2019-02-24T06:34:46.441Z,1
2019-02-24T06:39:48.880Z,1
2019-02-24T06:44:51.366Z,1
2019-02-24T06:49:53.810Z,1
2019-02-24T06:54:56.278Z,1
2019-02-24T06:59:58.715Z,1
2019-02-24T07:05:01.238Z,1
2019-02-24T07:10:03.634Z,1
2019-02-24T07:15:06.105Z,1
2019-02-24T07:20:08.568Z,1
2019-02-24T07:25:11.013Z,1
2019-02-24T07:30:13.529Z,1
2019-02-24T07:35:15.953Z,1
2019-02-24T07:40:18.388Z,1
2019-02-24T07:45:20.848Z,1
2019-02-24T07:50:23.316Z,1
2019-02-24T07:55:25.794Z,1
2019-02-24T08:00:32.126Z,1
2019-02-24T08:05:30.712Z,1
2019-02-24T08:10:33.159Z,1
2019-02-24T08:15:35.635Z,1
2019-02-24T08:20:38.097Z,1
2019-02-24T08:25:40.552Z,1
2019-02-24T08:30:43.017Z,1
2019-02-24T08:35:45.483Z,1
2019-02-24T08:40:47.938Z,1
2019-02-24T08:45:50.407Z,1
2019-02-24T08:50:52.840Z,1
2019-02-24T08:55:55.304Z,1
2019-02-24T09:00:57.808Z,1
2019-02-24T09:06:00.227Z,1
2019-02-24T09:11:02.689Z,1
2019-02-24T09:16:05.424Z,1
2019-02-24T09:21:07.921Z,1
2019-02-24T09:26:10.105Z,1
2019-02-24T09:31:12.518Z,1
2019-02-24T09:36:14.955Z,1
2019-02-24T09:41:17.490Z,1
2019-02-24T09:46:19.898Z,1
2019-02-24T09:51:22.371Z,1
2019-02-24T09:56:24.811Z,1
2019-02-24T10:01:27.280Z,1
2019-02-24T10:06:29.718Z,1
2019-02-24T10:11:32.420Z,1
2019-02-24T10:16:34.630Z,1
2019-02-24T10:21:37.107Z,1
2019-02-24T10:26:39.607Z,1
2019-02-24T10:31:42.183Z,1
2019-02-24T10:36:44.453Z,1
2019-02-24T10:41:46.931Z,1
2019-02-24T10:46:49.446Z,1
2019-02-24T10:51:51.903Z,1
2019-02-24T10:56:54.354Z,1
2019-02-24T11:01:56.745Z,1
2019-02-24T11:06:59.221Z,1
2019-02-24T11:12:01.689Z,1
2019-02-24T11:17:04.132Z,1
2019-02-24T11:22:06.668Z,1
2019-02-24T11:27:09.030Z,1
2019-02-24T11:32:11.546Z,1
2019-02-24T11:37:13.964Z,1
2019-02-24T11:42:16.501Z,1
2019-02-24T11:47:18.956Z,1
2019-02-24T11:52:21.329Z,1
2019-02-24T11:57:23.795Z,1
2019-02-24T12:02:34.126Z,1
2019-02-24T12:07:28.727Z,1
2019-02-24T12:12:31.246Z,1
2019-02-24T12:17:33.625Z,1
2019-02-24T12:22:36.216Z,1
2019-02-24T12:27:38.645Z,1
2019-02-24T12:32:41.114Z,1
2019-02-24T12:37:43.501Z,1
2019-02-24T12:42:45.938Z,1
2019-02-24T12:47:48.403Z,1
2019-02-24T12:52:50.849Z,1
2019-02-24T12:57:53.331Z,1
2019-02-24T13:02:55.773Z,1
2019-02-24T13:07:58.289Z,1
2019-02-24T13:13:00.722Z,1
2019-02-24T13:18:03.218Z,1
2019-02-24T13:23:05.637Z,1
2019-02-24T13:28:08.082Z,1
2019-02-24T13:33:10.531Z,1
2019-02-24T13:38:13.038Z,1
2019-02-24T13:43:16.714Z,1
2019-02-24T13:48:18.198Z,1
2019-02-24T13:53:20.367Z,1
2019-02-24T13:58:22.893Z,1
2019-02-24T14:03:25.382Z,1
2019-02-24T14:08:27.831Z,1
2019-02-24T14:13:30.256Z,1
2019-02-24T14:18:32.754Z,1
2019-02-24T14:23:35.123Z,1
2019-02-24T14:28:37.573Z,1
2019-02-24T14:33:40.024Z,1
2019-02-24T14:38:42.480Z,1
2019-02-24T14:43:44.953Z,1
2019-02-24T14:48:47.434Z,1
2019-02-24T14:53:49.862Z,1
2019-02-24T14:58:52.322Z,1
2019-02-24T15:03:54.785Z,1
2019-02-24T15:08:57.242Z,1
2019-02-24T15:13:59.769Z,1
2019-02-24T15:19:02.284Z,1
2019-02-24T15:24:04.621Z,1
2019-02-24T15:29:07.082Z,1
2019-02-24T15:34:09.629Z,1
2019-02-24T15:39:12.063Z,1
2019-02-24T15:44:14.475Z,1
2019-02-24T15:49:16.906Z,1
2019-02-24T15:54:19.406Z,1
2019-02-24T15:59:21.820Z,1
2019-02-24T16:04:24.268Z,1
2019-02-24T16:09:26.734Z,1
2019-02-24T16:14:29.179Z,1
2019-02-24T16:19:31.651Z,1
2019-02-24T16:24:34.088Z,1
2019-02-24T16:29:36.563Z,1
2019-02-24T16:34:39.025Z,1
2019-02-24T16:39:41.565Z,1
2019-02-24T16:44:43.957Z,1
2019-02-24T16:49:46.385Z,1
2019-02-24T16:54:52.600Z,1
2019-02-24T16:59:51.322Z,1
2019-02-24T17:04:53.775Z,1
2019-02-24T17:09:56.413Z,1
2019-02-24T17:14:58.685Z,1
2019-02-24T17:20:01.233Z,1
2019-02-24T17:25:03.612Z,1
2019-02-24T17:30:06.198Z,1
2019-02-24T17:35:08.557Z,1
2019-02-24T17:40:10.973Z,1
2019-02-24T17:45:13.440Z,1
2019-02-24T17:50:15.904Z,1
2019-02-24T17:55:18.352Z,1
2019-02-24T18:00:20.826Z,1
2019-02-24T18:05:23.286Z,1
2019-02-24T18:10:25.798Z,1
2019-02-24T18:15:28.227Z,1
2019-02-24T18:20:30.678Z,1
2019-02-24T18:25:33.132Z,1
2019-02-24T18:30:35.693Z,1
2019-02-24T18:35:38.077Z,1
2019-02-24T18:40:40.547Z,1
2019-02-24T18:45:43.074Z,1
2019-02-24T18:50:45.466Z,1
2019-02-24T18:55:47.918Z,1
2019-02-24T19:00:50.447Z,1
2019-02-24T19:05:52.847Z,1
2019-02-24T19:10:55.307Z,1
2019-02-24T19:15:57.855Z,1
2019-02-24T19:21:00.313Z,1
2019-02-24T19:26:02.924Z,1
2019-02-24T19:31:05.205Z,1
2019-02-24T19:36:07.633Z,1
2019-02-24T19:41:10.141Z,1
2019-02-24T19:46:12.659Z,1
2019-02-24T19:51:15.079Z,1
2019-02-24T19:56:17.510Z,1
2019-02-24T20:01:19.955Z,1
2019-02-24T20:06:22.420Z,1
2019-02-24T20:11:24.868Z,1
2019-02-24T20:21:29.829Z,1
2019-02-24T20:26:32.270Z,1
2019-02-24T20:31:34.707Z,1
2019-02-24T20:36:37.172Z,1
2019-02-24T20:41:39.635Z,1
2019-02-24T20:46:42.105Z,1
2019-02-24T20:51:44.600Z,1
2019-02-24T20:56:47.000Z,1
2019-02-24T21:01:49.521Z,1
2019-02-24T21:06:52.046Z,1
2019-02-24T21:11:54.416Z,1
2019-02-24T21:16:56.851Z,1
2019-02-24T21:21:59.316Z,1
2019-02-24T21:27:01.986Z,1
2019-02-24T21:32:04.292Z,1
2019-02-24T21:37:06.707Z,1
2019-02-24T21:42:09.172Z,1
2019-02-24T21:47:11.645Z,1
2019-02-24T21:52:14.067Z,1
2019-02-24T21:57:16.695Z,1
2019-02-24T22:02:18.982Z,1
2019-02-24T22:07:21.489Z,1
2019-02-24T22:12:23.916Z,1
2019-02-24T22:17:26.382Z,1
2019-02-24T22:22:28.821Z,1
2019-02-24T22:27:31.462Z,1
2019-02-24T22:32:33.734Z,1
2019-02-24T22:37:36.236Z,1
2019-02-24T22:42:38.662Z,1
2019-02-24T22:47:41.139Z,1
2019-02-24T22:52:43.584Z,1
2019-02-24T22:57:51.390Z,1
2019-02-24T23:02:48.548Z,1
2019-02-24T23:07:50.935Z,1
2019-02-24T23:12:53.405Z,1
2019-02-24T23:17:55.929Z,1
2019-02-24T23:22:58.413Z,1
2019-02-24T23:28:00.791Z,1
2019-02-24T23:33:03.230Z,1
2019-02-24T23:38:05.771Z,1
2019-02-24T23:43:08.143Z,1
2019-02-24T23:48:10.723Z,1
2019-02-24T23:53:13.122Z,1
2019-02-24T23:58:15.566Z,1
